Time;durP1;ratioP1;P1;durP2;ratioP2;P2;SDS_P1;SDS_P2;PMS_P1;PMS_P2;Temp;Humidity;BMP_temperature;BMP_pressure;BME280_temperature;BME280_humidity;BME280_pressure;Samples;Min_cycle;Max_cycle;Signal;HPM_P1;HPM_P2
2021/06/25 00:01:36;;;;;;;17.27;13.93;;;;;;;;;;5034276;28;20419;-64
2021/06/25 00:04:22;;;;;;;14.77;13.15;;;;;;;;;;5034771;28;20075;-64
2021/06/25 00:07:07;;;;;;;14.93;13.23;;;;;;;;;;5032723;28;20128;-64
2021/06/25 00:09:53;;;;;;;13.93;12.55;;;;;;;;;;5033764;28;20132;-65
2021/06/25 00:12:38;;;;;;;13.80;11.98;;;;;;;;;;5034540;28;20056;-64
2021/06/25 00:15:24;;;;;;;15.75;11.75;;;;;;;;;;5031124;28;20056;-64
2021/06/25 00:18:09;;;;;;;18.83;13.10;;;;;;;;;;5034298;28;20041;-64
2021/06/25 00:20:54;;;;;;;14.88;13.30;;;;;;;;;;5034291;28;20057;-64
2021/06/25 00:23:39;;;;;;;16.10;13.55;;;;;;;;;;5034335;28;20057;-64
2021/06/25 00:26:25;;;;;;;15.73;13.30;;;;;;;;;;5034514;28;20204;-64
2021/06/25 00:29:10;;;;;;;15.60;13.93;;;;;;;;;;5032625;28;20095;-65
2021/06/25 00:31:56;;;;;;;17.25;14.32;;;;;;;;;;5033073;28;20076;-65
2021/06/25 00:34:41;;;;;;;19.08;14.25;;;;;;;;;;5034545;28;20064;-64
2021/06/25 00:37:26;;;;;;;16.00;13.40;;;;;;;;;;5034108;28;20041;-64
2021/06/25 00:40:12;;;;;;;17.55;15.15;;;;;;;;;;5033910;28;20045;-64
2021/06/25 00:42:57;;;;;;;16.30;14.35;;;;;;;;;;5032384;28;20127;-64
2021/06/25 00:45:43;;;;;;;18.15;14.43;;;;;;;;;;5032595;28;20060;-65
2021/06/25 00:48:28;;;;;;;21.00;15.50;;;;;;;;;;5033815;28;20064;-64
2021/06/25 00:51:14;;;;;;;26.80;18.17;;;;;;;;;;5033699;28;20049;-64
2021/06/25 00:54:00;;;;;;;18.13;14.27;;;;;;;;;;5033893;28;20111;-64
2021/06/25 00:56:45;;;;;;;18.08;14.73;;;;;;;;;;5033667;28;20049;-64
2021/06/25 00:59:30;;;;;;;16.90;9.85;;;;;;;;;;5032024;28;20583;-64
2021/06/25 01:02:16;;;;;;;11.07;9.10;;;;;;;;;;5033524;28;20049;-65
2021/06/25 01:05:01;;;;;;;14.50;11.82;;;;;;;;;;5033542;28;20045;-65
2021/06/25 01:07:47;;;;;;;164.40;13.68;;;;;;;;;;5033713;28;20054;-65
2021/06/25 01:10:32;;;;;;;15.50;7.07;;;;;;;;;;5033098;28;20054;-64
2021/06/25 01:13:17;;;;;;;11.77;10.55;;;;;;;;;;5031513;28;20500;-65
2021/06/25 01:16:03;;;;;;;16.40;13.02;;;;;;;;;;5032251;28;20037;-64
2021/06/25 01:18:48;;;;;;;16.02;11.93;;;;;;;;;;5033312;28;20191;-64
2021/06/25 01:21:34;;;;;;;18.15;14.57;;;;;;;;;;5032994;28;20049;-65
2021/06/25 01:24:19;;;;;;;27.35;17.55;;;;;;;;;;5033448;28;20069;-64
2021/06/25 01:27:05;;;;;;;21.30;16.58;;;;;;;;;;5031508;28;20053;-65
2021/06/25 01:29:50;;;;;;;19.67;14.60;;;;;;;;;;5008845;28;20046;-65
2021/06/25 01:32:36;;;;;;;19.50;15.25;;;;;;;;;;4998818;28;20053;-64
2021/06/25 01:35:21;;;;;;;19.10;13.60;;;;;;;;;;5013337;28;20046;-65
2021/06/25 01:38:07;;;;;;;26.60;15.50;;;;;;;;;;5012011;28;20117;-65
2021/06/25 01:40:52;;;;;;;21.42;14.32;;;;;;;;;;5011741;28;20050;-65
2021/06/25 01:43:38;;;;;;;16.52;12.48;;;;;;;;;;5013370;28;20054;-65
2021/06/25 01:46:23;;;;;;;17.85;12.50;;;;;;;;;;5013116;28;20046;-64
2021/06/25 01:49:08;;;;;;;14.10;11.05;;;;;;;;;;5007328;28;20495;-64
2021/06/25 01:51:55;;;;;;;111.55;12.82;;;;;;;;;;5017142;28;20060;-64
2021/06/25 01:54:40;;;;;;;16.27;9.13;;;;;;;;;;5032812;28;20050;-64
2021/06/25 01:57:25;;;;;;;16.55;10.38;;;;;;;;;;5032481;28;20060;-64
2021/06/25 02:00:11;;;;;;;13.90;10.30;;;;;;;;;;5029741;28;20045;-65
2021/06/25 02:02:57;;;;;;;20.60;11.93;;;;;;;;;;5032340;28;20037;-65
2021/06/25 02:05:42;;;;;;;15.73;11.02;;;;;;;;;;5032559;28;20049;-64
2021/06/25 02:08:28;;;;;;;35.20;12.07;;;;;;;;;;5031797;28;20056;-66
2021/06/25 02:11:14;;;;;;;20.35;12.30;;;;;;;;;;4991348;28;20046;-65
2021/06/25 02:13:59;;;;;;;15.27;10.07;;;;;;;;;;4993006;28;20064;-63
2021/06/25 02:16:45;;;;;;;12.02;9.60;;;;;;;;;;4992970;28;20536;-65
2021/06/25 02:19:30;;;;;;;17.08;12.82;;;;;;;;;;5001842;28;20081;-65
2021/06/25 02:22:16;;;;;;;17.65;12.80;;;;;;;;;;5030560;28;20049;-64
2021/06/25 02:25:01;;;;;;;15.60;11.52;;;;;;;;;;5031904;28;20057;-64
2021/06/25 02:27:47;;;;;;;13.70;11.38;;;;;;;;;;5032203;28;20041;-64
2021/06/25 02:30:32;;;;;;;14.25;11.25;;;;;;;;;;5029458;28;20056;-64
2021/06/25 02:33:17;;;;;;;16.33;10.60;;;;;;;;;;5032174;28;20084;-65
2021/06/25 02:36:03;;;;;;;26.00;9.10;;;;;;;;;;5032085;28;20050;-64
2021/06/25 02:38:48;;;;;;;69.10;12.32;;;;;;;;;;5017172;28;20129;-64
2021/06/25 02:41:33;;;;;;;58.35;11.88;;;;;;;;;;5028629;28;20045;-64
2021/06/25 02:44:19;;;;;;;67.47;10.75;;;;;;;;;;5031695;28;20135;-65
2021/06/25 02:47:04;;;;;;;66.90;9.40;;;;;;;;;;5031827;28;20048;-65
2021/06/25 02:49:50;;;;;;;115.78;11.18;;;;;;;;;;5031867;28;20045;-64
2021/06/25 02:52:37;;;;;;;70.68;10.02;;;;;;;;;;5030656;28;20045;-65
2021/06/25 02:55:23;;;;;;;41.85;10.00;;;;;;;;;;5032205;28;20046;-65
2021/06/25 02:58:08;;;;;;;42.00;9.02;;;;;;;;;;5031979;28;20180;-65
2021/06/25 03:00:54;;;;;;;45.28;9.48;;;;;;;;;;5029038;28;20052;-65
2021/06/25 03:03:39;;;;;;;34.47;9.75;;;;;;;;;;5031485;28;20076;-65
2021/06/25 03:06:24;;;;;;;43.22;9.50;;;;;;;;;;5031959;28;20049;-65
2021/06/25 03:09:10;;;;;;;76.80;11.88;;;;;;;;;;5031921;28;20138;-65
2021/06/25 03:11:55;;;;;;;40.45;8.73;;;;;;;;;;5029448;28;20056;-65
2021/06/25 03:14:41;;;;;;;120.18;17.70;;;;;;;;;;5031068;28;20041;-65
2021/06/25 03:17:26;;;;;;;101.38;15.30;;;;;;;;;;5031588;28;20041;-65
2021/06/25 03:20:12;;;;;;;136.68;18.48;;;;;;;;;;5031546;28;20053;-65
2021/06/25 03:22:57;;;;;;;109.85;14.50;;;;;;;;;;5008616;28;20129;-65
2021/06/25 03:25:43;;;;;;;45.00;9.95;;;;;;;;;;5011749;28;20053;-65
2021/06/25 03:28:28;;;;;;;59.40;10.50;;;;;;;;;;5011938;28;20057;-65
2021/06/25 03:31:13;;;;;;;36.42;9.38;;;;;;;;;;4996700;28;20046;-65
2021/06/25 03:33:58;;;;;;;57.10;11.60;;;;;;;;;;4993800;28;20046;-65
2021/06/25 03:36:44;;;;;;;56.85;10.65;;;;;;;;;;4995969;28;20472;-65
2021/06/25 03:39:29;;;;;;;21.35;9.05;;;;;;;;;;4995466;28;20061;-65
2021/06/25 03:42:15;;;;;;;36.45;9.30;;;;;;;;;;5002480;28;20053;-65
2021/06/25 03:45:00;;;;;;;56.10;12.10;;;;;;;;;;5035190;28;20045;-65
2021/06/25 03:47:46;;;;;;;64.10;11.10;;;;;;;;;;5034967;28;20068;-65
2021/06/25 03:50:35;;;;;;;87.43;12.85;;;;;;;;;;5034926;28;20050;-65
2021/06/25 03:53:21;;;;;;;90.57;12.18;;;;;;;;;;5031218;28;20057;-65
2021/06/25 03:56:12;;;;;;;45.85;11.50;;;;;;;;;;5034815;28;20112;-65
2021/06/25 03:58:58;;;;;;;69.97;12.68;;;;;;;;;;5035024;28;20050;-65
2021/06/25 04:01:43;;;;;;;100.88;13.07;;;;;;;;;;5035002;28;20045;-63
2021/06/25 04:04:29;;;;;;;77.20;12.13;;;;;;;;;;5016337;28;20049;-64
2021/06/25 04:07:15;;;;;;;127.32;15.95;;;;;;;;;;5014665;28;20136;-63
2021/06/25 04:10:01;;;;;;;115.88;17.65;;;;;;;;;;5014933;28;20072;-63
2021/06/25 04:12:47;;;;;;;127.43;16.80;;;;;;;;;;5014846;28;20054;-63
2021/06/25 04:15:32;;;;;;;112.28;16.48;;;;;;;;;;5014011;28;20057;-64
2021/06/25 04:18:18;;;;;;;127.53;16.75;;;;;;;;;;5014639;28;20056;-63
2021/06/25 04:21:03;;;;;;;81.70;12.63;;;;;;;;;;5014364;28;20122;-64
2021/06/25 04:23:49;;;;;;;139.48;19.10;;;;;;;;;;5017386;28;20443;-64
2021/06/25 04:26:37;;;;;;;60.13;14.25;;;;;;;;;;5018754;28;20048;-64
2021/06/25 04:29:23;;;;;;;91.18;16.88;;;;;;;;;;5034102;28;20050;-64
2021/06/25 04:32:08;;;;;;;142.73;21.20;;;;;;;;;;5034122;28;20060;-64
2021/06/25 04:34:53;;;;;;;115.82;19.92;;;;;;;;;;5032199;28;20050;-64
2021/06/25 04:37:38;;;;;;;83.15;18.05;;;;;;;;;;5033096;28;20504;-64
2021/06/25 04:40:24;;;;;;;76.18;17.38;;;;;;;;;;5033824;28;20156;-64
2021/06/25 04:43:09;;;;;;;106.07;20.77;;;;;;;;;;5034008;28;20045;-64
2021/06/25 04:45:54;;;;;;;104.85;21.20;;;;;;;;;;5030470;28;20130;-64
2021/06/25 04:48:42;;;;;;;123.07;23.52;;;;;;;;;;5033650;28;20055;-64
2021/06/25 04:51:29;;;;;;;83.07;22.55;;;;;;;;;;5033669;28;20061;-64
2021/06/25 04:54:22;;;;;;;74.35;22.48;;;;;;;;;;5032015;28;20055;-64
2021/06/25 04:57:07;;;;;;;97.50;27.00;;;;;;;;;;4994586;28;20227;-64
2021/06/25 04:59:53;;;;;;;88.82;28.17;;;;;;;;;;4994176;28;20432;-64
2021/06/25 05:02:40;;;;;;;55.03;25.83;;;;;;;;;;5003072;28;20383;-64
2021/06/25 05:05:25;;;;;;;118.00;30.38;;;;;;;;;;5022863;28;20049;-66
2021/06/25 05:08:11;;;;;;;62.03;25.50;;;;;;;;;;5022803;28;20145;-65
2021/06/25 05:10:56;;;;;;;53.83;27.38;;;;;;;;;;5023509;28;20120;-65
2021/06/25 05:13:42;;;;;;;57.92;30.15;;;;;;;;;;5018871;28;20041;-64
2021/06/25 05:16:28;;;;;;;51.33;31.58;;;;;;;;;;5022400;28;20729;-64
2021/06/25 05:19:13;;;;;;;60.15;34.55;;;;;;;;;;5032196;28;20049;-66
2021/06/25 05:21:59;;;;;;;51.50;31.80;;;;;;;;;;5033405;28;20053;-65
2021/06/25 05:24:44;;;;;;;46.58;28.88;;;;;;;;;;5018431;28;20049;-65
2021/06/25 05:27:29;;;;;;;42.30;30.77;;;;;;;;;;5030214;28;20514;-65
2021/06/25 05:30:15;;;;;;;54.75;32.95;;;;;;;;;;5032615;28;20059;-65
2021/06/25 05:33:01;;;;;;;46.70;31.13;;;;;;;;;;5033164;28;20438;-65
2021/06/25 05:35:48;;;;;;;45.42;30.80;;;;;;;;;;5033283;28;20127;-65
2021/06/25 05:38:33;;;;;;;51.83;32.88;;;;;;;;;;4992977;28;20141;-65
2021/06/25 05:41:19;;;;;;;62.70;36.70;;;;;;;;;;4993342;28;20069;-65
2021/06/25 05:44:04;;;;;;;51.40;34.22;;;;;;;;;;4993711;28;20050;-66
2021/06/25 05:46:49;;;;;;;52.78;33.13;;;;;;;;;;4998179;28;20410;-65
2021/06/25 05:49:35;;;;;;;47.20;32.47;;;;;;;;;;4997084;28;20815;-65
2021/06/25 05:52:20;;;;;;;46.63;32.55;;;;;;;;;;5013343;28;20061;-65
2021/06/25 05:55:06;;;;;;;59.08;37.08;;;;;;;;;;5013581;28;20053;-66
2021/06/25 05:57:52;;;;;;;54.50;35.10;;;;;;;;;;5011546;28;20104;-65
2021/06/25 06:00:37;;;;;;;38.80;30.17;;;;;;;;;;4997326;28;20492;-66
2021/06/25 06:03:22;;;;;;;46.67;33.08;;;;;;;;;;5012802;28;20053;-65
2021/06/25 06:06:07;;;;;;;41.97;30.55;;;;;;;;;;5012765;28;20044;-66
2021/06/25 06:08:53;;;;;;;35.97;28.73;;;;;;;;;;5008216;28;20046;-66
2021/06/25 06:11:38;;;;;;;27.85;22.50;;;;;;;;;;5009862;28;20053;-66
2021/06/25 06:14:24;;;;;;;27.30;24.02;;;;;;;;;;5010988;28;20655;-65
2021/06/25 06:17:09;;;;;;;28.42;24.52;;;;;;;;;;5011733;28;20042;-66
2021/06/25 06:19:55;;;;;;;28.33;23.35;;;;;;;;;;4992624;28;20485;-66
2021/06/25 06:31:59;;;;;;;22.80;20.50;;;;;;;;;;5012370;28;20104;-66
2021/06/25 06:34:45;;;;;;;21.23;19.05;;;;;;;;;;5012438;28;20038;-65
2021/06/25 06:37:31;;;;;;;19.33;17.25;;;;;;;;;;5011650;28;20122;-65
2021/06/25 06:40:19;;;;;;;18.70;16.75;;;;;;;;;;5011618;28;20042;-66
2021/06/25 06:43:04;;;;;;;20.42;17.67;;;;;;;;;;5010911;28;20038;-66
2021/06/25 06:45:50;;;;;;;19.42;17.38;;;;;;;;;;5011307;28;20488;-66
2021/06/25 06:48:36;;;;;;;18.55;16.63;;;;;;;;;;5008523;28;20050;-66
2021/06/25 06:51:21;;;;;;;19.50;17.48;;;;;;;;;;5009237;28;20042;-66
2021/06/25 06:54:07;;;;;;;21.05;18.95;;;;;;;;;;5012180;28;20045;-65
2021/06/25 06:56:53;;;;;;;20.95;18.77;;;;;;;;;;5012209;28;20090;-66
2021/06/25 06:59:38;;;;;;;19.02;16.90;;;;;;;;;;5010166;28;20089;-65
2021/06/25 07:02:24;;;;;;;18.20;15.57;;;;;;;;;;5011530;28;20053;-65
2021/06/25 07:05:10;;;;;;;16.25;14.55;;;;;;;;;;5012148;28;20120;-66
2021/06/25 07:07:55;;;;;;;15.82;14.25;;;;;;;;;;5013988;28;20060;-65
2021/06/25 07:10:40;;;;;;;21.55;16.30;;;;;;;;;;5014554;28;20061;-66
2021/06/25 07:13:27;;;;;;;17.45;15.75;;;;;;;;;;5016233;28;20061;-65
2021/06/25 07:16:13;;;;;;;16.15;14.55;;;;;;;;;;5015923;28;20120;-65
2021/06/25 07:18:59;;;;;;;15.38;13.88;;;;;;;;;;5014784;28;20045;-65
2021/06/25 07:21:44;;;;;;;15.30;13.80;;;;;;;;;;5015713;28;20049;-65
2021/06/25 07:24:29;;;;;;;16.05;14.48;;;;;;;;;;5015778;28;20054;-66
2021/06/25 07:27:14;;;;;;;17.85;14.82;;;;;;;;;;5015809;28;20052;-65
2021/06/25 07:30:04;;;;;;;12.02;10.65;;;;;;;;;;5014372;28;20057;-65
2021/06/25 07:32:50;;;;;;;9.90;8.68;;;;;;;;;;5014709;28;20053;-65
2021/06/25 07:35:36;;;;;;;8.13;5.90;;;;;;;;;;5015175;28;20048;-65
2021/06/25 07:38:21;;;;;;;6.28;4.78;;;;;;;;;;5014763;28;20045;-66
2021/06/25 07:41:07;;;;;;;4.88;4.47;;;;;;;;;;5010812;28;20042;-66
2021/06/25 07:43:52;;;;;;;6.97;5.82;;;;;;;;;;5013147;28;20048;-65
2021/06/25 07:46:37;;;;;;;10.15;9.05;;;;;;;;;;5014358;28;20136;-66
2021/06/25 07:49:23;;;;;;;8.70;7.82;;;;;;;;;;5015049;28;20475;-66
2021/06/25 07:52:08;;;;;;;8.30;7.50;;;;;;;;;;4995457;28;20049;-66
2021/06/25 07:55:15;;;;;;;6.20;5.13;;;;;;;;;;4998122;28;20116;-65
2021/06/25 07:58:01;;;;;;;5.93;5.18;;;;;;;;;;5014916;28;20038;-65
2021/06/25 08:00:46;;;;;;;7.35;5.00;;;;;;;;;;5012627;28;20048;-66
2021/06/25 08:03:32;;;;;;;9.40;6.45;;;;;;;;;;5012092;28;20045;-66
2021/06/25 08:06:17;;;;;;;6.00;5.40;;;;;;;;;;5014839;28;20076;-66
2021/06/25 08:09:04;;;;;;;6.43;5.75;;;;;;;;;;5015087;28;20053;-66
2021/06/25 08:11:49;;;;;;;5.88;3.58;;;;;;;;;;5013371;28;20061;-66
2021/06/25 08:14:35;;;;;;;4.82;4.05;;;;;;;;;;5014083;28;20100;-65
2021/06/25 08:17:20;;;;;;;4.90;4.50;;;;;;;;;;5014906;28;20056;-65
2021/06/25 08:20:06;;;;;;;6.90;6.20;;;;;;;;;;5013585;28;20049;-66
2021/06/25 08:22:51;;;;;;;6.10;5.43;;;;;;;;;;5012754;28;20053;-66
2021/06/25 08:25:36;;;;;;;5.85;5.35;;;;;;;;;;5014488;28;20408;-66
2021/06/25 08:28:22;;;;;;;8.48;5.78;;;;;;;;;;5014436;28;20047;-66
2021/06/25 08:31:08;;;;;;;7.22;5.40;;;;;;;;;;5012924;28;20056;-66
2021/06/25 08:33:53;;;;;;;5.72;4.78;;;;;;;;;;5014061;28;20084;-65
2021/06/25 08:36:41;;;;;;;4.88;4.47;;;;;;;;;;5014711;28;20049;-67
2021/06/25 08:39:26;;;;;;;7.03;4.82;;;;;;;;;;5013941;28;20045;-66
2021/06/25 08:42:12;;;;;;;7.35;4.18;;;;;;;;;;5013259;28;20510;-66
2021/06/25 08:44:57;;;;;;;5.25;4.75;;;;;;;;;;4998395;28;20049;-66
2021/06/25 08:47:50;;;;;;;5.53;4.85;;;;;;;;;;4999419;28;20120;-65
2021/06/25 08:50:39;;;;;;;7.45;5.65;;;;;;;;;;5013817;28;20120;-65
2021/06/25 08:53:25;;;;;;;7.88;5.50;;;;;;;;;;5012753;28;20562;-66
2021/06/25 08:56:10;;;;;;;7.32;5.53;;;;;;;;;;5014143;28;20044;-65
2021/06/25 08:58:57;;;;;;;5.88;5.35;;;;;;;;;;5013925;28;20045;-66
2021/06/25 09:01:42;;;;;;;6.30;5.70;;;;;;;;;;5013511;28;20169;-66
2021/06/25 09:04:31;;;;;;;8.38;6.50;;;;;;;;;;5012048;28;20048;-66
2021/06/25 09:07:16;;;;;;;8.18;7.38;;;;;;;;;;5013795;28;20519;-66
2021/06/25 09:10:01;;;;;;;12.10;8.63;;;;;;;;;;5013729;28;20053;-65
2021/06/25 09:13:14;;;;;;;8.43;7.63;;;;;;;;;;5012765;28;20060;-66
2021/06/25 09:15:59;;;;;;;8.73;7.68;;;;;;;;;;5013096;28;20050;-65
2021/06/25 09:18:58;;;;;;;8.25;7.45;;;;;;;;;;5013661;28;20551;-65
2021/06/25 09:22:04;;;;;;;8.70;6.63;;;;;;;;;;5013568;28;20484;-66
2021/06/25 09:24:59;;;;;;;8.18;6.72;;;;;;;;;;5012545;28;20420;-66
2021/06/25 09:27:44;;;;;;;10.40;6.47;;;;;;;;;;5013334;28;20567;-66
2021/06/25 09:30:29;;;;;;;7.75;6.95;;;;;;;;;;5013021;28;20054;-66
2021/06/25 09:33:14;;;;;;;8.75;7.28;;;;;;;;;;4998700;28;20052;-66
2021/06/25 09:35:59;;;;;;;8.30;7.53;;;;;;;;;;4992970;28;20091;-66
2021/06/25 09:38:44;;;;;;;8.48;7.60;;;;;;;;;;4992413;28;20049;-66
2021/06/25 09:41:30;;;;;;;10.75;8.57;;;;;;;;;;4993153;28;20412;-66
2021/06/25 09:44:16;;;;;;;10.82;8.85;;;;;;;;;;4996692;28;20048;-66
2021/06/25 09:47:01;;;;;;;10.57;9.45;;;;;;;;;;5012575;28;20057;-66
2021/06/25 09:49:46;;;;;;;14.75;10.68;;;;;;;;;;4998317;28;20188;-66
2021/06/25 09:52:47;;;;;;;12.30;11.00;;;;;;;;;;5013000;28;20057;-66
2021/06/25 09:59:01;;;;;;;14.05;12.52;;;;;;;;;;4990880;28;20057;-66
2021/06/25 10:01:47;;;;;;;13.30;12.00;;;;;;;;;;4998596;28;20086;-67
2021/06/25 10:04:36;;;;;;;14.70;13.20;;;;;;;;;;5012409;28;20050;-66
2021/06/25 10:07:25;;;;;;;15.10;12.65;;;;;;;;;;4991930;28;20096;-67
2021/06/25 10:10:10;;;;;;;13.70;12.30;;;;;;;;;;4993322;28;20178;-67
2021/06/25 10:12:55;;;;;;;12.57;10.70;;;;;;;;;;4993104;28;20061;-67
2021/06/25 10:15:41;;;;;;;13.77;10.82;;;;;;;;;;5012182;28;20818;-67
2021/06/25 10:18:27;;;;;;;12.25;11.05;;;;;;;;;;5012712;28;20412;-67
2021/06/25 10:21:15;;;;;;;14.20;12.73;;;;;;;;;;5011434;28;20173;-67
2021/06/25 10:24:01;;;;;;;13.73;12.27;;;;;;;;;;5012746;28;20094;-66
2021/06/25 10:26:47;;;;;;;13.45;12.10;;;;;;;;;;5012566;28;20432;-67
2021/06/25 10:29:35;;;;;;;15.23;13.23;;;;;;;;;;5011441;28;20052;-67
2021/06/25 10:32:20;;;;;;;16.10;14.40;;;;;;;;;;4991710;28;20050;-67
2021/06/25 10:35:09;;;;;;;16.25;14.32;;;;;;;;;;4992860;28;20412;-67
2021/06/25 10:37:56;;;;;;;20.70;14.77;;;;;;;;;;4992840;28;20053;-67
2021/06/25 10:40:42;;;;;;;16.80;15.00;;;;;;;;;;4989107;28;20049;-67
2021/06/25 10:43:47;;;;;;;17.45;14.35;;;;;;;;;;4977376;28;20042;-66
2021/06/25 10:46:33;;;;;;;17.33;14.80;;;;;;;;;;4992923;28;20070;-66
2021/06/25 10:49:19;;;;;;;17.90;15.52;;;;;;;;;;4992640;28;20069;-66
2021/06/25 10:52:10;;;;;;;17.00;15.40;;;;;;;;;;5005445;28;20119;-66
2021/06/25 10:55:02;;;;;;;17.48;15.77;;;;;;;;;;5011453;28;20546;-67
2021/06/25 10:57:47;;;;;;;18.73;14.55;;;;;;;;;;5012154;28;20049;-67
2021/06/25 11:00:33;;;;;;;15.77;14.27;;;;;;;;;;5011047;28;20056;-66
2021/06/25 11:03:38;;;;;;;17.15;15.45;;;;;;;;;;5011650;28;20073;-66
2021/06/25 11:06:37;;;;;;;16.73;14.73;;;;;;;;;;4994929;28;20054;-66
2021/06/25 11:09:23;;;;;;;18.45;15.90;;;;;;;;;;4994495;28;20058;-66
2021/06/25 11:12:16;;;;;;;17.17;15.40;;;;;;;;;;5011229;28;20096;-65
2021/06/25 11:15:09;;;;;;;18.38;16.55;;;;;;;;;;5011643;28;20088;-66
2021/06/25 11:17:57;;;;;;;17.65;15.95;;;;;;;;;;5011784;28;20052;-66
2021/06/25 11:20:50;;;;;;;19.35;15.73;;;;;;;;;;5006300;28;20522;-65
2021/06/25 11:23:35;;;;;;;17.38;15.63;;;;;;;;;;5023861;28;20076;-65
2021/06/25 11:26:20;;;;;;;19.42;16.50;;;;;;;;;;5031793;28;20101;-66
2021/06/25 11:29:09;;;;;;;17.65;15.85;;;;;;;;;;5031578;28;20048;-66
2021/06/25 11:32:09;;;;;;;16.48;14.80;;;;;;;;;;5028618;28;20060;-66
2021/06/25 11:34:55;;;;;;;20.95;16.15;;;;;;;;;;5031681;28;20080;-66
2021/06/25 11:37:57;;;;;;;17.42;15.48;;;;;;;;;;5031544;28;20527;-66
2021/06/25 11:40:49;;;;;;;17.70;15.90;;;;;;;;;;5031100;28;20046;-66
2021/06/25 11:43:34;;;;;;;16.77;15.15;;;;;;;;;;5029463;28;20133;-65
2021/06/25 11:46:19;;;;;;;15.38;13.95;;;;;;;;;;5031268;28;20116;-66
2021/06/25 11:49:05;;;;;;;17.50;15.27;;;;;;;;;;5032234;28;20056;-66
2021/06/25 11:51:50;;;;;;;16.60;14.95;;;;;;;;;;5031477;28;20060;-66
2021/06/25 11:54:36;;;;;;;17.48;14.50;;;;;;;;;;4995754;28;20045;-66
2021/06/25 11:57:21;;;;;;;17.80;14.48;;;;;;;;;;4995942;28;20517;-66
2021/06/25 12:00:13;;;;;;;19.70;16.40;;;;;;;;;;4995264;28;20108;-66
2021/06/25 12:03:03;;;;;;;20.40;18.35;;;;;;;;;;4997495;28;20050;-68
2021/06/25 12:05:49;;;;;;;20.02;17.95;;;;;;;;;;5015819;28;20050;-66
2021/06/25 12:08:36;;;;;;;21.30;18.30;;;;;;;;;;5015130;28;20049;-66
2021/06/25 12:11:22;;;;;;;19.92;17.90;;;;;;;;;;5000194;28;20446;-67
2021/06/25 12:14:11;;;;;;;20.98;18.75;;;;;;;;;;5021692;28;20388;-67
2021/06/25 12:16:56;;;;;;;20.42;18.30;;;;;;;;;;5033477;28;20048;-66
2021/06/25 12:19:41;;;;;;;21.33;19.23;;;;;;;;;;5034372;28;20049;-66
2021/06/25 12:22:26;;;;;;;21.08;18.83;;;;;;;;;;5005614;28;20167;-66
2021/06/25 12:25:12;;;;;;;23.52;20.13;;;;;;;;;;5031915;28;20045;-65
2021/06/25 12:27:57;;;;;;;22.98;20.67;;;;;;;;;;5034196;28;20160;-66
2021/06/25 12:30:46;;;;;;;22.80;20.50;;;;;;;;;;5034008;28;20053;-65
2021/06/25 12:33:33;;;;;;;22.45;20.17;;;;;;;;;;5034565;28;20061;-65
2021/06/25 12:36:19;;;;;;;23.60;19.75;;;;;;;;;;4994252;28;20121;-65
2021/06/25 12:39:05;;;;;;;22.90;20.50;;;;;;;;;;4994992;28;20053;-66
2021/06/25 12:41:51;;;;;;;24.00;19.92;;;;;;;;;;4994714;28;20471;-66
2021/06/25 12:44:36;;;;;;;24.85;21.02;;;;;;;;;;5000080;28;20072;-66
2021/06/25 12:47:21;;;;;;;27.33;21.42;;;;;;;;;;5033455;28;20622;-66
2021/06/25 12:50:07;;;;;;;26.30;21.75;;;;;;;;;;5019338;28;20056;-66
2021/06/25 12:52:52;;;;;;;27.80;21.45;;;;;;;;;;5033967;28;20529;-66
2021/06/25 12:55:37;;;;;;;25.80;21.63;;;;;;;;;;5015058;28;20166;-65
2021/06/25 12:58:22;;;;;;;24.48;21.08;;;;;;;;;;5019094;28;20048;-66
2021/06/25 13:01:08;;;;;;;22.65;20.27;;;;;;;;;;5018630;28;20052;-65
2021/06/25 13:03:53;;;;;;;24.77;22.05;;;;;;;;;;5019024;28;20056;-65
2021/06/25 13:06:39;;;;;;;24.63;22.08;;;;;;;;;;5030734;28;20069;-65
2021/06/25 13:09:24;;;;;;;27.38;23.33;;;;;;;;;;5033154;28;20044;-66
2021/06/25 13:12:20;;;;;;;27.13;21.90;;;;;;;;;;5034408;28;20038;-65
2021/06/25 13:15:06;;;;;;;25.35;22.48;;;;;;;;;;5033838;28;20047;-65
2021/06/25 13:17:52;;;;;;;26.25;22.52;;;;;;;;;;5032873;28;20603;-65
2021/06/25 13:20:56;;;;;;;24.70;21.60;;;;;;;;;;5018344;28;20041;-65
2021/06/25 13:23:42;;;;;;;25.52;21.90;;;;;;;;;;5033635;28;20051;-66
2021/06/25 13:26:32;;;;;;;25.77;21.30;;;;;;;;;;5031757;28;20419;-66
2021/06/25 13:29:21;;;;;;;23.15;20.77;;;;;;;;;;5033899;28;20051;-66
2021/06/25 13:32:06;;;;;;;25.02;21.80;;;;;;;;;;5033609;28;20049;-66
2021/06/25 13:34:55;;;;;;;24.90;22.30;;;;;;;;;;5033689;28;20048;-66
2021/06/25 13:37:44;;;;;;;29.25;22.33;;;;;;;;;;5016446;28;20423;-66
2021/06/25 13:40:50;;;;;;;24.48;21.88;;;;;;;;;;5032244;28;20510;-65
2021/06/25 13:43:36;;;;;;;23.67;21.13;;;;;;;;;;5033102;28;20053;-65
2021/06/25 13:46:22;;;;;;;24.02;20.33;;;;;;;;;;5032649;28;20056;-66
2021/06/25 13:49:08;;;;;;;24.35;21.70;;;;;;;;;;4994286;28;20408;-66
2021/06/25 13:51:53;;;;;;;27.17;22.15;;;;;;;;;;4993848;28;20073;-66
2021/06/25 13:54:38;;;;;;;25.83;23.08;;;;;;;;;;5019896;28;20044;-65
2021/06/25 13:57:23;;;;;;;26.65;23.83;;;;;;;;;;5017782;28;20041;-65
2021/06/25 14:00:28;;;;;;;27.15;22.52;;;;;;;;;;5018263;28;20179;-65
2021/06/25 14:03:22;;;;;;;26.85;24.02;;;;;;;;;;5019600;28;20722;-65
2021/06/25 14:06:08;;;;;;;31.25;23.88;;;;;;;;;;5023266;28;20041;-65
2021/06/25 14:08:54;;;;;;;26.63;23.85;;;;;;;;;;5011123;28;20484;-66
2021/06/25 14:11:39;;;;;;;28.23;25.23;;;;;;;;;;4995415;28;20061;-65
2021/06/25 14:14:24;;;;;;;28.65;23.45;;;;;;;;;;5009614;28;20052;-66
2021/06/25 14:17:10;;;;;;;27.52;24.23;;;;;;;;;;5019938;28;20049;-65
2021/06/25 14:19:55;;;;;;;29.35;25.55;;;;;;;;;;5029611;28;20687;-65
2021/06/25 14:22:41;;;;;;;28.52;25.50;;;;;;;;;;5031477;28;20053;-65
2021/06/25 14:25:26;;;;;;;30.60;25.85;;;;;;;;;;5031257;28;20046;-65
2021/06/25 14:28:11;;;;;;;28.08;25.08;;;;;;;;;;5029452;28;20411;-65
2021/06/25 14:30:57;;;;;;;33.55;26.13;;;;;;;;;;5031109;28;20052;-65
2021/06/25 14:33:42;;;;;;;39.15;27.38;;;;;;;;;;5031646;28;20138;-65
2021/06/25 14:36:27;;;;;;;30.50;25.73;;;;;;;;;;5018622;28;20042;-65
2021/06/25 14:39:13;;;;;;;29.77;26.58;;;;;;;;;;5017062;28;20048;-64
2021/06/25 14:41:59;;;;;;;30.15;26.95;;;;;;;;;;5009008;28;20124;-65
2021/06/25 14:44:44;;;;;;;28.20;25.17;;;;;;;;;;5011005;28;20045;-64
2021/06/25 14:47:30;;;;;;;32.22;26.05;;;;;;;;;;5011032;28;20056;-65
2021/06/25 14:50:15;;;;;;;31.48;26.95;;;;;;;;;;5009919;28;20050;-65
2021/06/25 14:53:01;;;;;;;33.83;26.73;;;;;;;;;;5010781;28;20061;-64
2021/06/25 14:55:46;;;;;;;30.65;26.25;;;;;;;;;;5011659;28;20100;-65
2021/06/25 14:58:31;;;;;;;29.92;26.67;;;;;;;;;;5011828;28;20160;-65
2021/06/25 15:01:16;;;;;;;29.77;26.48;;;;;;;;;;5008927;28;20053;-65
2021/06/25 15:04:02;;;;;;;30.33;26.90;;;;;;;;;;5011113;28;20057;-65
2021/06/25 15:06:47;;;;;;;30.15;26.95;;;;;;;;;;5011151;28;20174;-64
2021/06/25 15:09:33;;;;;;;32.45;28.02;;;;;;;;;;5010217;28;20072;-64
2021/06/25 15:12:19;;;;;;;34.22;28.67;;;;;;;;;;5011798;28;20046;-65
2021/06/25 15:15:05;;;;;;;37.95;28.65;;;;;;;;;;5011925;28;20049;-65
2021/06/25 15:17:51;;;;;;;32.08;28.13;;;;;;;;;;5006700;28;20103;-65
2021/06/25 15:20:36;;;;;;;31.05;27.05;;;;;;;;;;5013387;28;20155;-64
2021/06/25 15:23:21;;;;;;;30.40;27.10;;;;;;;;;;5009393;28;20052;-65
2021/06/25 15:26:07;;;;;;;34.38;29.02;;;;;;;;;;5011488;28;20072;-66
2021/06/25 15:28:52;;;;;;;31.88;27.92;;;;;;;;;;5011964;28;20049;-66
2021/06/25 15:31:38;;;;;;;31.92;28.60;;;;;;;;;;5013874;28;20048;-66
2021/06/25 15:34:23;;;;;;;32.47;28.77;;;;;;;;;;5022232;28;20096;-65
2021/06/25 15:37:09;;;;;;;34.80;29.77;;;;;;;;;;5020418;28;20052;-65
2021/06/25 15:39:55;;;;;;;33.33;29.63;;;;;;;;;;5020524;28;20176;-65
2021/06/25 15:42:40;;;;;;;37.13;29.40;;;;;;;;;;5013880;28;20500;-65
2021/06/25 15:45:25;;;;;;;35.72;31.85;;;;;;;;;;5014656;28;20061;-65
2021/06/25 15:48:11;;;;;;;42.13;37.45;;;;;;;;;;5018338;28;20054;-65
2021/06/25 15:50:56;;;;;;;48.38;41.53;;;;;;;;;;5017690;28;20169;-65
2021/06/25 15:53:42;;;;;;;49.78;44.38;;;;;;;;;;5022099;28;20057;-65
2021/06/25 15:56:27;;;;;;;53.22;44.35;;;;;;;;;;5016617;28;20045;-65
2021/06/25 15:59:14;;;;;;;51.63;46.05;;;;;;;;;;5024201;28;20064;-65
2021/06/25 16:01:59;;;;;;;54.65;48.88;;;;;;;;;;5026210;28;20049;-65
2021/06/25 16:04:44;;;;;;;51.40;46.03;;;;;;;;;;5020918;28;20045;-65
2021/06/25 16:07:30;;;;;;;52.10;46.53;;;;;;;;;;5035991;23;20598;-64
2021/06/25 16:10:19;;;;;;;55.78;48.97;;;;;;;;;;5001703;28;20058;-64
2021/06/25 16:13:10;;;;;;;53.15;46.35;;;;;;;;;;5003434;28;20045;-65
2021/06/25 16:15:55;;;;;;;54.25;48.35;;;;;;;;;;5005341;28;20517;-64
2021/06/25 16:18:40;;;;;;;54.95;49.17;;;;;;;;;;5013259;28;20049;-65
2021/06/25 16:21:25;;;;;;;56.70;50.70;;;;;;;;;;5011092;28;20116;-65
2021/06/25 16:24:14;;;;;;;56.88;50.95;;;;;;;;;;4990915;28;20109;-64
2021/06/25 16:26:59;;;;;;;59.70;51.17;;;;;;;;;;4987351;28;20129;-63